Time;durP1;ratioP1;P1;durP2;ratioP2;P2;SDS_P1;SDS_P2;PMS_P1;PMS_P2;Temp;Humidity;BMP_temperature;BMP_pressure;BME280_temperature;BME280_humidity;BME280_pressure;Samples;Min_cycle;Max_cycle;Signal;HPM_P1;HPM_P2
2022/04/27 00:00:44;;;;;;;8.10;5.97;;;;;20.10;101125.00;;;;2079094;28;20245;-47
2022/04/27 00:01:44;;;;;;;7.63;5.23;;;;;20.20;101118.00;;;;2079534;28;20225;-47
2022/04/27 00:02:45;;;;;;;5.47;4.97;;;;;20.20;101119.00;;;;2079636;28;20235;-47
2022/04/27 00:03:45;;;;;;;6.03;5.43;;;;;20.20;101044.00;;;;2079384;28;20240;-50
2022/04/27 00:04:45;;;;;;;5.93;5.23;;;;;20.20;101117.00;;;;2079610;28;20214;-51
2022/04/27 00:05:46;;;;;;;6.30;5.53;;;;;20.30;101123.00;;;;2078964;28;20220;-49
2022/04/27 00:06:46;;;;;;;7.07;5.60;;;;;20.20;101122.00;;;;2079643;28;20216;-49
2022/04/27 00:07:46;;;;;;;6.97;5.50;;;;;20.20;101115.00;;;;2078543;28;20222;-47
2022/04/27 00:08:47;;;;;;;8.70;5.10;;;;;20.20;101116.00;;;;2070477;28;20229;-48
2022/04/27 00:09:47;;;;;;;6.40;5.13;;;;;20.20;101122.00;;;;2078914;28;20240;-48
2022/04/27 00:10:47;;;;;;;8.40;5.60;;;;;20.20;101114.00;;;;2078852;28;20202;-47
2022/04/27 00:11:48;;;;;;;6.83;5.37;;;;;20.20;101119.00;;;;2078196;28;20222;-48
2022/04/27 00:12:48;;;;;;;6.23;5.63;;;;;20.20;101115.00;;;;2079389;28;20217;-47
2022/04/27 00:13:48;;;;;;;6.30;4.93;;;;;20.20;101119.00;;;;2079372;28;20213;-47
2022/04/27 00:14:49;;;;;;;6.83;5.53;;;;;20.20;101122.00;;;;2079720;28;20209;-47
2022/04/27 00:15:49;;;;;;;6.30;5.17;;;;;20.20;101117.00;;;;2078713;28;20297;-47
2022/04/27 00:16:49;;;;;;;7.47;4.57;;;;;20.20;101121.00;;;;2074275;28;20244;-48
2022/04/27 00:17:50;;;;;;;5.60;4.97;;;;;20.20;101121.00;;;;2086887;28;20251;-47
2022/04/27 00:18:50;;;;;;;4.83;4.33;;;;;20.20;101116.00;;;;2082980;28;20206;-48
2022/04/27 00:19:50;;;;;;;5.47;4.90;;;;;20.20;101121.00;;;;2079538;28;20217;-47
2022/04/27 00:20:51;;;;;;;5.70;4.57;;;;;20.20;101125.00;;;;2079411;28;20221;-47
2022/04/27 00:21:51;;;;;;;5.30;4.80;;;;;20.20;101122.00;;;;2079838;28;20837;-48
2022/04/27 00:22:52;;;;;;;8.10;4.53;;;;;20.20;101118.00;;;;2079663;28;20640;-48
2022/04/27 00:23:52;;;;;;;5.80;4.90;;;;;20.20;101118.00;;;;2079267;28;20237;-47
2022/04/27 00:24:52;;;;;;;5.30;4.80;;;;;20.20;101124.00;;;;2079418;28;20217;-47
2022/04/27 00:25:53;;;;;;;7.73;4.80;;;;;20.20;101127.00;;;;2078981;28;20801;-47
2022/04/27 00:26:53;;;;;;;6.90;4.83;;;;;20.20;101129.00;;;;2079342;28;20205;-47
2022/04/27 00:27:53;;;;;;;5.80;5.20;;;;;20.20;101131.00;;;;2079582;28;20212;-47
2022/04/27 00:28:54;;;;;;;5.73;4.77;;;;;20.20;101124.00;;;;2079377;28;20244;-47
2022/04/27 00:29:55;;;;;;;6.40;4.70;;;;;20.20;101122.00;;;;2079185;28;20205;-49
2022/04/27 00:30:55;;;;;;;8.75;5.38;;;;;20.20;101123.00;;;;2079170;28;20716;-46
2022/04/27 00:31:56;;;;;;;5.33;4.80;;;;;20.10;101133.00;;;;2079540;28;20244;-47
2022/04/27 00:32:56;;;;;;;6.67;4.87;;;;;20.20;101130.00;;;;2079278;28;20210;-47
2022/04/27 00:33:57;;;;;;;7.23;4.70;;;;;20.20;101126.00;;;;2079574;28;20212;-47
2022/04/27 00:34:57;;;;;;;6.93;4.70;;;;;20.20;101128.00;;;;2079443;28;20216;-47
2022/04/27 00:35:57;;;;;;;6.23;4.70;;;;;20.20;101128.00;;;;2078647;28;20732;-47
2022/04/27 00:36:58;;;;;;;6.17;5.00;;;;;20.20;101127.00;;;;2079222;28;20292;-48
2022/04/27 00:37:58;;;;;;;5.30;4.43;;;;;20.20;101129.00;;;;2079487;28;20209;-47
2022/04/27 00:38:58;;;;;;;4.60;4.20;;;;;20.20;101134.00;;;;2079465;28;20263;-47
2022/04/27 00:39:59;;;;;;;6.70;4.20;;;;;20.20;101135.00;;;;2079236;28;20206;-47
2022/04/27 00:40:59;;;;;;;4.57;4.17;;;;;20.20;101132.00;;;;2078185;28;20213;-47
2022/04/27 00:42:14;;;;;;;4.93;4.50;;;;;20.20;101128.00;;;;2079646;28;20220;-47
2022/04/27 00:43:15;;;;;;;5.97;4.82;;;;;20.20;101129.00;;;;2079295;28;20225;-47
2022/04/27 00:44:15;;;;;;;4.80;4.00;;;;;20.20;101123.00;;;;2079448;28;20237;-46
2022/04/27 00:45:16;;;;;;;4.57;4.03;;;;;20.20;101125.00;;;;2079131;28;20219;-46
2022/04/27 00:46:16;;;;;;;6.93;4.60;;;;;20.20;101125.00;;;;2078722;28;20224;-48
2022/04/27 00:47:17;;;;;;;5.43;4.80;;;;;20.20;101116.00;;;;2079029;28;20609;-47
2022/04/27 00:48:17;;;;;;;8.40;4.30;;;;;20.20;101121.00;;;;2079476;28;20225;-47
2022/04/27 00:49:17;;;;;;;5.10;4.20;;;;;20.20;101126.00;;;;2079254;28;21011;-46
2022/04/27 00:50:18;;;;;;;4.90;4.40;;;;;20.20;101123.00;;;;2079451;28;20690;-47
2022/04/27 00:51:20;;;;;;;4.67;4.20;;;;;20.20;101121.00;;;;2079262;28;20224;-46
2022/04/27 00:52:20;;;;;;;4.60;4.20;;;;;20.20;101123.00;;;;2078728;28;20296;-47
2022/04/27 00:53:20;;;;;;;4.33;4.03;;;;;20.20;101125.00;;;;2078461;28;20226;-47
2022/04/27 00:54:22;;;;;;;4.63;4.23;;;;;19.90;101130.00;;;;2079150;28;20224;-47
2022/04/27 00:55:23;;;;;;;4.90;4.50;;;;;20.20;101115.00;;;;2078827;28;20246;-48
2022/04/27 00:56:24;;;;;;;4.60;4.20;;;;;20.20;101122.00;;;;2083046;28;20225;-48
2022/04/27 00:57:25;;;;;;;4.53;4.05;;;;;20.20;101120.00;;;;2086154;28;20236;-47
2022/04/27 00:58:26;;;;;;;4.50;4.10;;;;;20.20;101120.00;;;;2087526;28;20605;-47
2022/04/27 00:59:27;;;;;;;5.47;4.80;;;;;20.20;101126.00;;;;2087575;28;20305;-47
2022/04/27 01:00:27;;;;;;;6.30;4.13;;;;;20.20;101123.00;;;;2087328;28;20993;-47
2022/04/27 01:01:28;;;;;;;4.37;3.97;;;;;20.20;101129.00;;;;2086899;28;20999;-46
2022/04/27 01:02:28;;;;;;;4.47;3.80;;;;;20.20;101112.00;;;;2081906;28;20224;-46
2022/04/27 01:03:28;;;;;;;5.33;4.37;;;;;20.20;101123.00;;;;2078171;28;20214;-48
2022/04/27 01:04:31;;;;;;;6.40;4.00;;;;;20.20;101125.00;;;;2078695;28;20225;-46
2022/04/27 01:05:31;;;;;;;5.07;4.57;;;;;20.20;101114.00;;;;2077239;28;20275;-47
2022/04/27 01:06:31;;;;;;;5.67;4.43;;;;;20.20;101126.00;;;;2053711;28;20302;-46
2022/04/27 01:07:31;;;;;;;4.87;3.87;;;;;20.20;101132.00;;;;2067412;28;20225;-46
2022/04/27 01:08:32;;;;;;;4.50;4.10;;;;;20.20;101131.00;;;;2084384;28;20232;-46
2022/04/27 01:09:33;;;;;;;5.03;3.97;;;;;20.20;101120.00;;;;2086318;28;20216;-46
2022/04/27 01:10:33;;;;;;;5.00;4.20;;;;;20.10;101120.00;;;;2086083;28;20209;-47
2022/04/27 01:11:33;;;;;;;5.83;4.60;;;;;20.10;101131.00;;;;2086781;28;20549;-46
2022/04/27 01:12:34;;;;;;;3.90;3.50;;;;;20.20;101125.00;;;;2086084;28;20231;-47
2022/04/27 01:13:35;;;;;;;4.60;4.20;;;;;20.10;101129.00;;;;2085862;28;20217;-46
2022/04/27 01:14:47;;;;;;;5.50;4.23;;;;;20.10;101138.00;;;;2086396;28;20483;-46
2022/04/27 01:15:48;;;;;;;5.05;3.97;;;;;20.20;101128.00;;;;2086062;28;20850;-46
2022/04/27 01:16:52;;;;;;;5.90;4.07;;;;;20.20;101129.00;;;;2082191;28;20224;-46
2022/04/27 01:17:52;;;;;;;4.30;4.00;;;;;20.10;101130.00;;;;2078378;28;20217;-46
2022/04/27 01:18:53;;;;;;;3.90;3.60;;;;;20.10;101125.00;;;;2077701;28;20706;-46
2022/04/27 01:19:53;;;;;;;4.20;3.90;;;;;20.10;101127.00;;;;2077744;28;20587;-48
2022/04/27 01:20:53;;;;;;;5.63;4.40;;;;;20.10;101134.00;;;;2077966;28;20586;-47
2022/04/27 01:21:54;;;;;;;4.70;4.00;;;;;20.10;101126.00;;;;2078371;28;20221;-46
2022/04/27 01:22:54;;;;;;;5.27;3.97;;;;;20.10;101129.00;;;;2078138;28;20217;-46
2022/04/27 01:23:55;;;;;;;5.00;3.93;;;;;20.10;101133.00;;;;2076308;28;20214;-47
2022/04/27 01:24:57;;;;;;;4.53;4.00;;;;;20.10;101130.00;;;;2073182;28;20268;-47
2022/04/27 01:26:05;;;;;;;4.13;3.65;;;;;20.10;101117.00;;;;2077573;28;20697;-46
2022/04/27 01:27:05;;;;;;;5.15;4.03;;;;;20.10;101137.00;;;;2073158;28;20233;-46
2022/04/27 01:28:05;;;;;;;4.10;3.80;;;;;20.10;101129.00;;;;2070256;28;20210;-46
2022/04/27 01:29:06;;;;;;;4.00;3.70;;;;;20.10;101132.00;;;;2062133;28;20241;-48
2022/04/27 01:30:07;;;;;;;5.10;3.77;;;;;20.10;101134.00;;;;2062044;28;20250;-46
2022/04/27 01:31:09;;;;;;;4.03;3.60;;;;;20.10;101142.00;;;;2070923;28;20279;-46
2022/04/27 01:32:10;;;;;;;4.10;3.67;;;;;20.10;101135.00;;;;2070983;28;20650;-46
2022/04/27 01:33:11;;;;;;;5.23;3.97;;;;;20.10;101143.00;;;;2070914;28;20238;-46
2022/04/27 01:34:12;;;;;;;4.37;4.00;;;;;20.10;101141.00;;;;2070745;28;20449;-49
2022/04/27 01:35:12;;;;;;;4.25;3.85;;;;;20.10;101134.00;;;;2070487;28;20459;-46
2022/04/27 01:36:15;;;;;;;4.40;3.40;;;;;20.10;101146.00;;;;2070188;28;20210;-47
2022/04/27 01:38:42;;;;;;;5.13;4.00;;;;;20.10;101151.00;;;;2079931;28;21266;-46
2022/04/27 01:39:43;;;;;;;4.47;3.70;;;;;20.10;101147.00;;;;2079062;28;20223;-47
2022/04/27 01:40:44;;;;;;;3.60;3.27;;;;;20.10;101147.00;;;;2078185;28;20229;-46
2022/04/27 01:41:45;;;;;;;4.32;3.92;;;;;20.10;101145.00;;;;2070247;28;20210;-47
2022/04/27 01:42:46;;;;;;;3.72;3.42;;;;;20.10;101149.00;;;;2078047;28;20845;-47
2022/04/27 01:43:46;;;;;;;4.00;3.60;;;;;20.10;101148.00;;;;2074690;28;20313;-47
2022/04/27 01:44:47;;;;;;;4.20;3.80;;;;;20.10;101151.00;;;;2070803;28;20703;-47
2022/04/27 01:45:47;;;;;;;4.53;3.67;;;;;20.10;101152.00;;;;2072246;28;20702;-47
2022/04/27 01:46:47;;;;;;;3.83;3.50;;;;;20.10;101139.00;;;;2078790;28;20712;-47
2022/04/27 01:47:48;;;;;;;4.00;3.70;;;;;20.10;101151.00;;;;2078949;28;20966;-47
2022/04/27 01:48:50;;;;;;;4.57;3.80;;;;;20.00;101146.00;;;;2078927;28;20757;-47
2022/04/27 01:49:50;;;;;;;4.10;3.70;;;;;20.10;101153.00;;;;2078857;28;20225;-47
2022/04/27 01:50:51;;;;;;;4.13;3.57;;;;;20.10;101149.00;;;;2078923;28;20222;-47
2022/04/27 01:54:28;;;;;;;4.97;3.97;;;;;20.10;101153.00;;;;2078905;28;20205;-46
2022/04/27 01:55:29;;;;;;;3.83;3.40;;;;;20.10;101155.00;;;;2078121;28;20242;-47
2022/04/27 01:56:29;;;;;;;4.20;3.80;;;;;20.00;101161.00;;;;2079047;28;20214;-47
2022/04/27 01:57:30;;;;;;;4.13;3.73;;;;;20.10;101157.00;;;;2078339;28;20217;-47
2022/04/27 01:58:31;;;;;;;3.65;3.35;;;;;20.00;101163.00;;;;2078873;28;20213;-46
2022/04/27 01:59:31;;;;;;;4.10;3.70;;;;;19.80;101163.00;;;;2078732;28;20201;-47
2022/04/27 02:00:31;;;;;;;3.80;3.50;;;;;20.00;101163.00;;;;2078759;28;20202;-47
2022/04/27 02:01:32;;;;;;;4.60;3.70;;;;;20.00;101163.00;;;;2078938;28;20285;-47
2022/04/27 02:02:33;;;;;;;3.80;3.40;;;;;20.00;101164.00;;;;2075309;28;20210;-47
2022/04/27 02:03:34;;;;;;;4.43;3.70;;;;;20.00;101166.00;;;;2070120;28;20718;-47
2022/04/27 02:04:34;;;;;;;3.97;3.57;;;;;20.00;101168.00;;;;2061903;28;20225;-47
2022/04/27 02:05:34;;;;;;;3.80;3.40;;;;;20.00;101170.00;;;;2061192;28;20226;-47
2022/04/27 02:06:38;;;;;;;4.10;3.63;;;;;20.00;101174.00;;;;2070614;28;20340;-51
2022/04/27 02:07:38;;;;;;;4.15;3.45;;;;;20.00;101173.00;;;;2070394;28;20563;-46
2022/04/27 02:08:38;;;;;;;3.77;3.47;;;;;20.00;101175.00;;;;2070623;28;20206;-47
2022/04/27 02:09:39;;;;;;;3.63;3.33;;;;;20.00;101173.00;;;;2070754;28;20224;-47
2022/04/27 02:10:39;;;;;;;4.17;3.70;;;;;20.00;101166.00;;;;2070826;28;20203;-47
2022/04/27 02:11:39;;;;;;;4.10;3.40;;;;;20.00;101171.00;;;;2070632;28;20206;-47
2022/04/27 02:12:40;;;;;;;4.23;3.70;;;;;20.00;101172.00;;;;2070708;28;20614;-46
2022/04/27 02:13:40;;;;;;;4.13;3.80;;;;;20.00;101177.00;;;;2070744;28;20245;-47
2022/04/27 02:14:40;;;;;;;4.40;4.00;;;;;20.00;101185.00;;;;2070790;28;20217;-46
2022/04/27 02:15:41;;;;;;;4.03;3.47;;;;;20.00;101173.00;;;;2069108;28;20218;-47
2022/04/27 02:16:41;;;;;;;4.90;3.60;;;;;20.00;101178.00;;;;2070580;28;20206;-47
2022/04/27 02:17:41;;;;;;;3.43;3.10;;;;;20.00;101179.00;;;;2075629;28;20213;-46
2022/04/27 02:18:42;;;;;;;4.10;3.70;;;;;20.00;101181.00;;;;2077980;28;20213;-47
2022/04/27 02:19:42;;;;;;;3.70;3.40;;;;;20.00;101181.00;;;;2077239;28;20248;-47
2022/04/27 02:20:42;;;;;;;3.80;3.50;;;;;20.00;101195.00;;;;2077831;28;20217;-47
2022/04/27 02:21:43;;;;;;;5.17;3.97;;;;;20.00;101179.00;;;;2077946;28;20221;-47
2022/04/27 02:22:44;;;;;;;3.70;3.40;;;;;20.00;101182.00;;;;2078042;28;20213;-48
2022/04/27 02:23:44;;;;;;;3.30;3.00;;;;;20.00;101187.00;;;;2072023;28;20217;-46
2022/04/27 02:24:45;;;;;;;3.87;3.57;;;;;20.00;101185.00;;;;2077018;28;20271;-46
2022/04/27 02:25:46;;;;;;;3.50;3.20;;;;;20.00;101173.00;;;;2077152;28;20206;-47
2022/04/27 02:26:46;;;;;;;3.53;3.22;;;;;20.00;101180.00;;;;2078182;28;20217;-47
2022/04/27 02:27:48;;;;;;;3.90;3.60;;;;;20.00;101187.00;;;;2077761;28;20701;-46
2022/04/27 02:28:49;;;;;;;3.75;3.33;;;;;20.00;101187.00;;;;2078336;28;20263;-46
2022/04/27 02:29:49;;;;;;;4.10;3.70;;;;;20.00;101193.00;;;;2076762;28;20262;-47
2022/04/27 02:30:49;;;;;;;3.73;3.43;;;;;20.00;101193.00;;;;2077005;28;20706;-48
2022/04/27 02:31:50;;;;;;;3.43;3.13;;;;;20.00;101182.00;;;;2078420;28;20272;-46
2022/04/27 02:32:51;;;;;;;3.30;3.10;;;;;20.00;101194.00;;;;2078702;28;20253;-46
2022/04/27 02:33:52;;;;;;;3.40;3.10;;;;;20.00;101201.00;;;;2078520;28;20448;-49
2022/04/27 02:34:52;;;;;;;4.57;3.60;;;;;20.00;101192.00;;;;2078481;28;20686;-47
2022/04/27 02:35:52;;;;;;;4.33;3.43;;;;;20.00;101192.00;;;;2077785;28;20702;-47
2022/04/27 02:36:53;;;;;;;3.43;3.10;;;;;19.90;101202.00;;;;2078493;28;20597;-47
2022/04/27 02:37:53;;;;;;;4.90;3.60;;;;;20.00;101204.00;;;;2078649;28;20546;-47
2022/04/27 02:38:53;;;;;;;3.47;3.17;;;;;20.00;101197.00;;;;2078853;28;20686;-47
2022/04/27 02:39:54;;;;;;;4.27;3.17;;;;;20.00;101189.00;;;;2078779;28;20696;-47
2022/04/27 02:40:54;;;;;;;4.00;3.60;;;;;20.00;101188.00;;;;2077996;28;20214;-47
2022/04/27 02:41:54;;;;;;;4.23;3.20;;;;;19.90;101181.00;;;;2078762;28;20218;-47
2022/04/27 02:42:55;;;;;;;3.93;3.53;;;;;19.90;101196.00;;;;2078676;28;20217;-47
2022/04/27 02:43:55;;;;;;;3.50;2.97;;;;;20.00;101200.00;;;;2078357;28;20224;-47
2022/04/27 02:44:56;;;;;;;4.80;3.70;;;;;19.90;101191.00;;;;2078547;28;20209;-47
2022/04/27 02:45:56;;;;;;;3.70;3.40;;;;;19.90;101196.00;;;;2077883;28;20205;-46
2022/04/27 02:46:57;;;;;;;4.70;3.93;;;;;19.90;101200.00;;;;2078484;28;20440;-46
2022/04/27 02:47:57;;;;;;;3.70;3.40;;;;;19.90;101192.00;;;;2078163;28;20263;-47
2022/04/27 02:51:54;;;;;;;4.07;3.67;;;;;19.90;101193.00;;;;2078463;28;20664;-47
2022/04/27 02:52:54;;;;;;;4.10;3.30;;;;;19.90;101203.00;;;;2081097;28;20194;-47
2022/04/27 02:53:54;;;;;;;4.30;3.23;;;;;19.90;101201.00;;;;2077876;28;20223;-47
2022/04/27 02:54:55;;;;;;;4.70;3.70;;;;;20.00;101206.00;;;;2078584;28;20201;-47
2022/04/27 02:55:56;;;;;;;3.97;3.60;;;;;19.90;101199.00;;;;2077769;28;20233;-47
2022/04/27 02:56:56;;;;;;;3.90;3.50;;;;;19.90;101207.00;;;;2078602;28;20213;-47
2022/04/27 02:57:56;;;;;;;3.53;3.23;;;;;19.90;101216.00;;;;2075810;28;20645;-47
2022/04/27 02:58:58;;;;;;;4.23;3.83;;;;;19.90;101200.00;;;;2077635;28;20636;-47
2022/04/27 02:59:58;;;;;;;3.50;3.20;;;;;19.90;101203.00;;;;2077537;28;20209;-47
2022/04/27 03:00:58;;;;;;;4.27;3.73;;;;;19.90;101203.00;;;;2077191;28;20241;-47
2022/04/27 03:01:58;;;;;;;4.60;3.00;;;;;19.90;101216.00;;;;2077905;28;20233;-46
2022/04/27 03:02:59;;;;;;;3.87;3.47;;;;;19.90;101210.00;;;;2077573;28;20217;-47
2022/04/27 03:03:59;;;;;;;3.37;3.13;;;;;19.90;101211.00;;;;2078014;28;20283;-47
2022/04/27 03:05:02;;;;;;;3.90;3.60;;;;;19.90;101204.00;;;;2077776;28;20272;-47
2022/04/27 03:06:02;;;;;;;3.50;3.20;;;;;19.90;101208.00;;;;2077174;28;20727;-46
2022/04/27 03:07:03;;;;;;;3.73;3.43;;;;;19.90;101208.00;;;;2075862;28;20217;-47
2022/04/27 03:08:04;;;;;;;3.40;3.10;;;;;19.90;101210.00;;;;2078002;28;20585;-47
2022/04/27 03:09:04;;;;;;;3.27;3.07;;;;;19.90;101210.00;;;;2078003;28;20248;-47
2022/04/27 03:10:05;;;;;;;3.60;3.33;;;;;19.90;101213.00;;;;2077501;28;20468;-47
2022/04/27 03:11:06;;;;;;;3.50;3.20;;;;;19.90;101213.00;;;;2077652;28;20259;-47
2022/04/27 03:12:06;;;;;;;4.10;3.80;;;;;19.90;101209.00;;;;2077937;28;20456;-47
2022/04/27 03:13:07;;;;;;;3.17;2.87;;;;;19.90;101202.00;;;;2077670;28;20228;-47
2022/04/27 03:14:07;;;;;;;4.37;3.33;;;;;19.90;101224.00;;;;2077737;28;20225;-47
2022/04/27 03:15:07;;;;;;;3.50;3.20;;;;;19.90;101209.00;;;;2077781;28;20702;-46
2022/04/27 03:16:08;;;;;;;3.50;3.20;;;;;19.90;101214.00;;;;2077670;28;20214;-47
2022/04/27 03:17:08;;;;;;;3.63;3.33;;;;;19.90;101218.00;;;;2077667;28;20217;-47
2022/04/27 03:18:19;;;;;;;3.40;3.10;;;;;19.90;101206.00;;;;2078087;28;20230;-47
2022/04/27 03:19:20;;;;;;;3.88;3.45;;;;;19.90;101214.00;;;;2081463;28;20237;-47
2022/04/27 03:20:20;;;;;;;4.00;3.60;;;;;19.90;101214.00;;;;2078088;28;20594;-48
2022/04/27 03:21:20;;;;;;;3.30;3.00;;;;;19.90;101209.00;;;;2077597;28;20217;-47
2022/04/27 03:22:22;;;;;;;3.60;3.27;;;;;19.90;101214.00;;;;2076804;28;20217;-47
2022/04/27 03:23:23;;;;;;;3.53;3.22;;;;;19.80;101212.00;;;;2077968;28;20307;-47
2022/04/27 03:24:23;;;;;;;4.10;3.40;;;;;19.90;101215.00;;;;2076674;28;20225;-48
2022/04/27 03:25:23;;;;;;;3.33;3.03;;;;;19.90;101208.00;;;;2076447;28;20452;-47
2022/04/27 03:26:24;;;;;;;3.40;3.10;;;;;19.80;101218.00;;;;2078470;28;20221;-47
2022/04/27 03:27:24;;;;;;;4.20;3.50;;;;;19.90;101216.00;;;;2078946;28;20244;-47
2022/04/27 03:28:24;;;;;;;4.50;3.60;;;;;19.80;101211.00;;;;2079142;28;20248;-48
2022/04/27 03:29:25;;;;;;;3.57;3.10;;;;;19.80;101215.00;;;;2079157;28;20218;-47
2022/04/27 03:30:26;;;;;;;3.70;3.40;;;;;19.80;101216.00;;;;2079386;28;20636;-47
2022/04/27 03:31:26;;;;;;;3.78;3.47;;;;;19.80;101210.00;;;;2079129;28;20710;-47
2022/04/27 03:32:27;;;;;;;3.47;3.17;;;;;19.80;101213.00;;;;2080064;28;20214;-47
2022/04/27 03:33:28;;;;;;;3.67;3.03;;;;;19.80;101209.00;;;;2079944;28;20241;-47
2022/04/27 03:34:28;;;;;;;3.37;3.07;;;;;19.80;101214.00;;;;2079887;28;20285;-48
2022/04/27 03:35:28;;;;;;;3.70;3.40;;;;;19.80;101213.00;;;;2079232;28;20459;-48
2022/04/27 03:36:29;;;;;;;3.67;3.37;;;;;19.80;101211.00;;;;2078721;28;20210;-47
2022/04/27 03:37:29;;;;;;;3.50;3.20;;;;;19.80;101215.00;;;;2079021;28;20218;-47
2022/04/27 03:38:29;;;;;;;3.20;2.90;;;;;19.80;101215.00;;;;2079170;28;20214;-48
2022/04/27 03:39:30;;;;;;;3.43;3.13;;;;;19.80;101210.00;;;;2079284;28;20268;-48
2022/04/27 03:40:30;;;;;;;3.30;3.00;;;;;19.80;101220.00;;;;2079494;28;20216;-47
2022/04/27 03:41:31;;;;;;;3.50;3.20;;;;;19.80;101223.00;;;;2077087;28;20225;-46
2022/04/27 03:42:31;;;;;;;3.30;3.00;;;;;19.90;101221.00;;;;2070412;28;20226;-47
2022/04/27 03:43:31;;;;;;;3.33;3.03;;;;;19.80;101223.00;;;;2070831;28;20238;-46
2022/04/27 03:44:32;;;;;;;3.70;3.20;;;;;19.80;101218.00;;;;2071434;28;20218;-47
2022/04/27 03:45:32;;;;;;;3.93;3.30;;;;;19.80;101232.00;;;;2070280;28;20218;-49
2022/04/27 03:46:32;;;;;;;3.23;3.03;;;;;19.80;101226.00;;;;2070450;28;20260;-46
2022/04/27 03:47:33;;;;;;;3.87;3.07;;;;;19.80;101228.00;;;;2070191;28;20226;-47
2022/04/27 03:48:33;;;;;;;3.80;3.27;;;;;19.80;101230.00;;;;2071039;28;20215;-50
2022/04/27 03:49:33;;;;;;;3.60;3.30;;;;;19.80;101230.00;;;;2076654;28;20618;-47
2022/04/27 03:50:34;;;;;;;3.70;3.40;;;;;19.80;101235.00;;;;2079891;28;20222;-47
2022/04/27 03:51:34;;;;;;;3.20;3.00;;;;;19.80;101236.00;;;;2079748;28;21182;-46
2022/04/27 03:52:35;;;;;;;4.00;3.67;;;;;19.80;101229.00;;;;2079332;28;20721;-47
2022/04/27 03:53:35;;;;;;;3.47;3.17;;;;;19.80;101235.00;;;;2077840;28;20694;-49
2022/04/27 03:54:35;;;;;;;3.90;3.50;;;;;19.80;101225.00;;;;2070598;28;20681;-47
2022/04/27 03:55:36;;;;;;;3.60;3.27;;;;;19.80;101232.00;;;;2073559;28;20284;-48
2022/04/27 03:56:36;;;;;;;3.80;3.20;;;;;19.80;101235.00;;;;2079117;28;20221;-46
2022/04/27 03:57:37;;;;;;;2.90;2.70;;;;;19.80;101232.00;;;;2079256;28;20217;-47
2022/04/27 03:58:37;;;;;;;3.22;2.92;;;;;19.80;101226.00;;;;2079777;28;20217;-46
2022/04/27 03:59:38;;;;;;;3.70;3.40;;;;;19.80;101239.00;;;;2079827;28;20220;-47
2022/04/27 04:00:38;;;;;;;3.90;3.60;;;;;19.80;101236.00;;;;2071549;28;20694;-46
2022/04/27 04:01:39;;;;;;;3.50;3.20;;;;;19.80;101244.00;;;;2070885;28;20698;-46
2022/04/27 04:02:39;;;;;;;3.00;2.80;;;;;19.80;101236.00;;;;2070460;28;20702;-46
2022/04/27 04:03:39;;;;;;;4.27;3.87;;;;;19.80;101237.00;;;;2070903;28;20226;-45
2022/04/27 04:04:40;;;;;;;3.70;3.40;;;;;19.80;101230.00;;;;2070626;28;20583;-45
2022/04/27 04:05:41;;;;;;;3.63;2.97;;;;;19.80;101220.00;;;;2070951;28;20640;-47
2022/04/27 04:06:42;;;;;;;3.67;3.35;;;;;19.80;101241.00;;;;2071024;28;20691;-46
2022/04/27 04:07:42;;;;;;;3.63;3.33;;;;;19.80;101231.00;;;;2070494;28;20428;-46
2022/04/27 04:08:42;;;;;;;3.13;2.93;;;;;19.80;101234.00;;;;2071557;28;20511;-49
2022/04/27 04:09:43;;;;;;;3.90;3.50;;;;;19.80;101229.00;;;;2070697;28;20241;-47
2022/04/27 04:10:45;;;;;;;3.23;3.03;;;;;19.80;101238.00;;;;2070999;28;20214;-47
2022/04/27 04:11:46;;;;;;;3.50;3.20;;;;;19.80;101236.00;;;;2070856;28;20706;-45
2022/04/27 04:12:46;;;;;;;3.57;3.27;;;;;19.80;101239.00;;;;2070659;28;20221;-46
2022/04/27 04:13:47;;;;;;;3.50;3.20;;;;;19.80;101239.00;;;;2071464;28;20225;-47
2022/04/27 04:14:47;;;;;;;4.00;3.37;;;;;19.80;101241.00;;;;2070907;28;20312;-47
2022/04/27 04:15:47;;;;;;;2.87;2.67;;;;;19.80;101232.00;;;;2070084;28;20222;-46
2022/04/27 04:16:48;;;;;;;3.47;3.17;;;;;19.80;101244.00;;;;2071447;28;20222;-46
2022/04/27 04:17:48;;;;;;;3.63;3.33;;;;;19.80;101242.00;;;;2075828;28;20217;-47
2022/04/27 04:18:48;;;;;;;3.93;3.50;;;;;19.80;101239.00;;;;2078197;28;20221;-48
2022/04/27 04:19:49;;;;;;;3.33;3.10;;;;;19.80;101245.00;;;;2078285;28;20223;-47
2022/04/27 04:20:49;;;;;;;2.97;2.77;;;;;19.80;101247.00;;;;2079501;28;20241;-48
2022/04/27 04:21:49;;;;;;;2.93;2.73;;;;;19.80;101246.00;;;;2079672;28;20658;-47
2022/04/27 04:22:50;;;;;;;3.40;3.10;;;;;19.70;101248.00;;;;2079543;28;20206;-47
2022/04/27 04:23:50;;;;;;;3.30;3.10;;;;;19.80;101254.00;;;;2079569;28;20209;-48
2022/04/27 04:28:47;;;;;;;3.00;2.80;;;;;19.70;101251.00;;;;2078821;28;20217;-47
2022/04/27 04:29:47;;;;;;;3.53;3.23;;;;;19.70;101261.00;;;;2079406;28;20268;-47
2022/04/27 04:30:47;;;;;;;3.90;3.30;;;;;19.70;101260.00;;;;2079233;28;20300;-47
2022/04/27 04:31:48;;;;;;;4.00;3.60;;;;;19.70;101261.00;;;;2071320;28;20264;-47
2022/04/27 04:32:48;;;;;;;3.93;3.27;;;;;19.70;101262.00;;;;2071340;28;20218;-47
2022/04/27 04:33:48;;;;;;;3.83;3.53;;;;;19.70;101262.00;;;;2071084;28;20218;-47
2022/04/27 04:34:50;;;;;;;3.30;3.10;;;;;19.70;101265.00;;;;2071312;28;20291;-47
2022/04/27 04:35:52;;;;;;;4.22;3.60;;;;;19.70;101262.00;;;;2070382;28;20214;-47
2022/04/27 04:36:52;;;;;;;3.75;3.30;;;;;19.70;101274.00;;;;2071046;28;20225;-47
2022/04/27 04:37:53;;;;;;;4.83;3.20;;;;;19.70;101275.00;;;;2070332;28;20701;-47
2022/04/27 04:38:53;;;;;;;3.35;3.05;;;;;19.70;101280.00;;;;2071190;28;20785;-47
2022/04/27 04:39:54;;;;;;;2.97;2.77;;;;;19.70;101271.00;;;;2070922;28;20224;-47
2022/04/27 04:40:54;;;;;;;3.53;3.00;;;;;19.70;101280.00;;;;2070568;28;20222;-47
2022/04/27 04:41:54;;;;;;;3.20;2.90;;;;;19.70;101277.00;;;;2070507;28;20210;-47
2022/04/27 04:42:55;;;;;;;3.37;3.10;;;;;19.40;101285.00;;;;2071377;28;20690;-47
2022/04/27 04:43:55;;;;;;;3.70;3.00;;;;;19.70;101282.00;;;;2070571;28;20218;-47
2022/04/27 04:44:56;;;;;;;3.97;3.57;;;;;19.70;101279.00;;;;2070581;28;20220;-47
2022/04/27 04:45:57;;;;;;;3.72;3.42;;;;;19.70;101274.00;;;;2070146;28;20863;-47
2022/04/27 04:46:57;;;;;;;3.80;3.43;;;;;19.70;101277.00;;;;2071106;28;20279;-47
2022/04/27 04:47:57;;;;;;;3.20;3.00;;;;;19.70;101280.00;;;;2070782;28;20214;-47
2022/04/27 04:48:58;;;;;;;3.83;3.20;;;;;19.70;101285.00;;;;2074425;28;20217;-47
2022/04/27 04:49:58;;;;;;;4.10;3.70;;;;;19.70;101282.00;;;;2072934;28;20232;-47
2022/04/27 04:50:58;;;;;;;3.50;3.20;;;;;19.70;101288.00;;;;2071033;28;20211;-47
2022/04/27 04:51:59;;;;;;;3.77;3.47;;;;;19.70;101287.00;;;;2071110;28;20245;-47
2022/04/27 04:52:59;;;;;;;3.53;3.23;;;;;19.70;101288.00;;;;2071271;28;20241;-48
2022/04/27 04:53:59;;;;;;;3.80;3.50;;;;;19.70;101290.00;;;;2070148;28;20284;-48
2022/04/27 04:55:00;;;;;;;3.83;3.53;;;;;19.70;101286.00;;;;2070208;28;20282;-47
2022/04/27 04:56:00;;;;;;;3.73;3.43;;;;;19.70;101298.00;;;;2070275;28;20313;-48
2022/04/27 04:57:00;;;;;;;3.60;3.30;;;;;19.70;101284.00;;;;2070876;28;20218;-47
2022/04/27 04:58:02;;;;;;;3.50;3.20;;;;;19.70;101294.00;;;;2071123;28;20225;-48
2022/04/27 04:59:02;;;;;;;3.60;3.30;;;;;19.70;101287.00;;;;2074092;28;20221;-47
2022/04/27 05:00:04;;;;;;;3.30;3.00;;;;;19.70;101294.00;;;;2074890;28;20214;-48
2022/04/27 05:01:04;;;;;;;5.20;3.70;;;;;19.70;101300.00;;;;2070876;28;20230;-47
2022/04/27 05:02:04;;;;;;;3.37;3.13;;;;;19.70;101290.00;;;;2070896;28;20314;-46
2022/04/27 05:03:05;;;;;;;3.97;3.57;;;;;19.70;101303.00;;;;2068527;28;20210;-47
2022/04/27 05:04:05;;;;;;;3.20;2.90;;;;;19.70;101293.00;;;;2070692;28;20210;-53
2022/04/27 05:05:06;;;;;;;3.60;3.30;;;;;19.70;101299.00;;;;2069939;28;20206;-49
2022/04/27 05:06:07;;;;;;;3.80;3.50;;;;;19.70;101305.00;;;;2069409;28;20218;-48
2022/04/27 05:07:07;;;;;;;3.30;3.10;;;;;19.70;101300.00;;;;2070857;28;20226;-48
2022/04/27 05:08:09;;;;;;;3.57;3.23;;;;;19.70;101309.00;;;;2074618;28;20214;-47
2022/04/27 05:09:09;;;;;;;3.85;3.45;;;;;19.70;101303.00;;;;2079267;28;20213;-47
2022/04/27 05:10:10;;;;;;;4.10;3.70;;;;;19.70;101311.00;;;;2079222;28;20259;-47
2022/04/27 05:11:10;;;;;;;3.33;3.03;;;;;19.70;101306.00;;;;2079057;28;20209;-47